sensor_id;sensor_type;location;lat;lon;timestamp;pressure;altitude;pressure_sealevel;temperature;humidity
52923;BME280;38796;42.702;23.306;2023-02-15T00:01:27;96479.03;;;0.41;91.14
52923;BME280;38796;42.702;23.306;2023-02-15T00:03:26;96475.47;;;0.45;90.65
52923;BME280;38796;42.702;23.306;2023-02-15T00:05:24;96489.84;;;0.56;91.21
52923;BME280;38796;42.702;23.306;2023-02-15T00:07:22;96485.69;;;1.08;88.62
52923;BME280;38796;42.702;23.306;2023-02-15T00:09:21;96491.38;;;0.92;88.43
52923;BME280;38796;42.702;23.306;2023-02-15T00:11:19;96501.34;;;0.77;89.23
52923;BME280;38796;42.702;23.306;2023-02-15T00:13:36;96486.59;;;0.49;89.97
52923;BME280;38796;42.702;23.306;2023-02-15T00:15:37;96493.00;;;0.36;91.15
52923;BME280;38796;42.702;23.306;2023-02-15T00:17:35;96495.50;;;0.40;91.17
52923;BME280;38796;42.702;23.306;2023-02-15T00:19:33;96499.47;;;0.52;91.19
52923;BME280;38796;42.702;23.306;2023-02-15T00:21:33;96499.69;;;0.44;90.95
52923;BME280;38796;42.702;23.306;2023-02-15T00:23:31;96499.22;;;0.30;91.27
52923;BME280;38796;42.702;23.306;2023-02-15T00:25:30;96490.06;;;0.17;92.52
52923;BME280;38796;42.702;23.306;2023-02-15T00:27:28;96487.72;;;0.40;91.82
52923;BME280;38796;42.702;23.306;2023-02-15T00:29:26;96500.78;;;0.36;91.64
52923;BME280;38796;42.702;23.306;2023-02-15T00:31:27;96505.94;;;0.36;91.67
52923;BME280;38796;42.702;23.306;2023-02-15T00:33:27;96507.00;;;0.30;91.83
52923;BME280;38796;42.702;23.306;2023-02-15T00:35:25;96502.22;;;0.15;92.11
52923;BME280;38796;42.702;23.306;2023-02-15T00:37:24;96508.75;;;-0.03;92.57
52923;BME280;38796;42.702;23.306;2023-02-15T00:39:22;96516.72;;;-0.11;93.82
52923;BME280;38796;42.702;23.306;2023-02-15T00:41:21;96505.75;;;-0.22;94.10
52923;BME280;38796;42.702;23.306;2023-02-15T00:43:19;96505.13;;;-0.30;94.69
52923;BME280;38796;42.702;23.306;2023-02-15T00:45:17;96508.25;;;-0.17;94.94
52923;BME280;38796;42.702;23.306;2023-02-15T00:47:19;96508.97;;;-0.12;94.85
52923;BME280;38796;42.702;23.306;2023-02-15T00:49:17;96502.09;;;-0.13;94.89
52923;BME280;38796;42.702;23.306;2023-02-15T00:51:16;96505.63;;;-0.16;94.64
52923;BME280;38796;42.702;23.306;2023-02-15T00:53:14;96500.63;;;-0.23;94.90
52923;BME280;38796;42.702;23.306;2023-02-15T00:55:13;96506.81;;;-0.29;95.21
52923;BME280;38796;42.702;23.306;2023-02-15T00:57:11;96504.47;;;-0.38;95.46
52923;BME280;38796;42.702;23.306;2023-02-15T00:59:09;96507.19;;;-0.43;95.90
52923;BME280;38796;42.702;23.306;2023-02-15T01:01:08;96501.75;;;-0.34;96.60
52923;BME280;38796;42.702;23.306;2023-02-15T01:03:10;96506.34;;;-0.45;96.24
52923;BME280;38796;42.702;23.306;2023-02-15T01:05:09;96503.09;;;-0.53;96.64
52923;BME280;38796;42.702;23.306;2023-02-15T01:07:08;96516.00;;;-0.52;97.07
52923;BME280;38796;42.702;23.306;2023-02-15T01:09:06;96505.78;;;-0.58;96.94
52923;BME280;38796;42.702;23.306;2023-02-15T01:11:07;96502.59;;;-0.69;97.31
52923;BME280;38796;42.702;23.306;2023-02-15T01:13:06;96507.66;;;-0.63;97.72
52923;BME280;38796;42.702;23.306;2023-02-15T01:15:04;96499.22;;;-0.71;97.92
52923;BME280;38796;42.702;23.306;2023-02-15T01:17:03;96499.34;;;-0.76;98.03
52923;BME280;38796;42.702;23.306;2023-02-15T01:19:06;96494.19;;;-0.77;98.78
52923;BME280;38796;42.702;23.306;2023-02-15T01:21:14;96510.66;;;-0.81;98.93
52923;BME280;38796;42.702;23.306;2023-02-15T01:23:13;96497.88;;;-0.87;99.11
52923;BME280;38796;42.702;23.306;2023-02-15T01:25:11;96491.06;;;-0.91;99.20
52923;BME280;38796;42.702;23.306;2023-02-15T01:27:09;96498.03;;;-0.93;99.33
52923;BME280;38796;42.702;23.306;2023-02-15T01:29:08;96492.03;;;-0.95;99.56
52923;BME280;38796;42.702;23.306;2023-02-15T01:31:07;96498.03;;;-0.93;100.00
52923;BME280;38796;42.702;23.306;2023-02-15T01:33:06;96490.34;;;-0.97;100.00
52923;BME280;38796;42.702;23.306;2023-02-15T01:35:10;96493.88;;;-1.01;100.00
52923;BME280;38796;42.702;23.306;2023-02-15T01:37:08;96490.16;;;-0.89;100.00
52923;BME280;38796;42.702;23.306;2023-02-15T01:39:06;96480.41;;;-0.78;100.00
52923;BME280;38796;42.702;23.306;2023-02-15T01:41:07;96480.09;;;-0.65;99.89
52923;BME280;38796;42.702;23.306;2023-02-15T01:43:20;96484.56;;;-0.70;99.59
52923;BME280;38796;42.702;23.306;2023-02-15T01:45:21;96485.41;;;-0.70;99.75
52923;BME280;38796;42.702;23.306;2023-02-15T01:47:23;96476.97;;;-0.78;99.44
52923;BME280;38796;42.702;23.306;2023-02-15T01:49:27;96479.59;;;-0.80;100.00
52923;BME280;38796;42.702;23.306;2023-02-15T01:51:31;96474.44;;;-0.45;99.31
52923;BME280;38796;42.702;23.306;2023-02-15T01:53:34;96468.66;;;-0.55;98.98
52923;BME280;38796;42.702;23.306;2023-02-15T01:55:38;96459.97;;;-0.53;98.96
52923;BME280;38796;42.702;23.306;2023-02-15T01:57:38;96465.34;;;-0.62;98.99
52923;BME280;38796;42.702;23.306;2023-02-15T01:59:38;96468.72;;;-0.58;98.93
52923;BME280;38796;42.702;23.306;2023-02-15T02:01:38;96459.53;;;-0.70;99.19
52923;BME280;38796;42.702;23.306;2023-02-15T02:03:43;96464.81;;;-0.75;99.70
52923;BME280;38796;42.702;23.306;2023-02-15T02:05:46;96462.19;;;-0.73;100.00
52923;BME280;38796;42.702;23.306;2023-02-15T02:07:46;96460.44;;;-0.71;99.90
52923;BME280;38796;42.702;23.306;2023-02-15T02:09:48;96469.81;;;-0.67;99.74
52923;BME280;38796;42.702;23.306;2023-02-15T02:11:47;96469.88;;;-0.70;99.99
52923;BME280;38796;42.702;23.306;2023-02-15T02:13:46;96470.00;;;-0.76;100.00
52923;BME280;38796;42.702;23.306;2023-02-15T02:15:52;96464.22;;;-0.86;100.00
52923;BME280;38796;42.702;23.306;2023-02-15T02:18:03;96464.31;;;-0.90;100.00
52923;BME280;38796;42.702;23.306;2023-02-15T02:23:13;96472.31;;;-1.01;100.00
52923;BME280;38796;42.702;23.306;2023-02-15T02:28:15;96482.84;;;-1.09;100.00
52923;BME280;38796;42.702;23.306;2023-02-15T02:30:40;96481.75;;;-0.99;100.00
52923;BME280;38796;42.702;23.306;2023-02-15T02:35:34;96473.97;;;-0.97;100.00
52923;BME280;38796;42.702;23.306;2023-02-15T02:37:37;96476.59;;;-0.99;100.00
52923;BME280;38796;42.702;23.306;2023-02-15T02:39:48;96481.88;;;-1.03;100.00
52923;BME280;38796;42.702;23.306;2023-02-15T02:41:56;96485.44;;;-1.09;100.00
52923;BME280;38796;42.702;23.306;2023-02-15T02:44:04;96482.78;;;-1.06;100.00
52923;BME280;38796;42.702;23.306;2023-02-15T02:46:11;96477.53;;;-1.03;100.00
52923;BME280;38796;42.702;23.306;2023-02-15T02:48:14;96476.66;;;-1.02;100.00
52923;BME280;38796;42.702;23.306;2023-02-15T02:50:16;96480.13;;;-1.03;100.00
52923;BME280;38796;42.702;23.306;2023-02-15T02:52:40;96487.00;;;-1.02;100.00
52923;BME280;38796;42.702;23.306;2023-02-15T02:54:38;96481.03;;;-1.04;100.00
52923;BME280;38796;42.702;23.306;2023-02-15T02:56:39;96483.38;;;-0.94;100.00
52923;BME280;38796;42.702;23.306;2023-02-15T02:58:42;96497.00;;;-0.86;100.00
52923;BME280;38796;42.702;23.306;2023-02-15T03:00:45;96496.00;;;-0.81;100.00
52923;BME280;38796;42.702;23.306;2023-02-15T03:02:47;96495.03;;;-0.77;100.00
52923;BME280;38796;42.702;23.306;2023-02-15T03:04:50;96491.59;;;-0.76;100.00
52923;BME280;38796;42.702;23.306;2023-02-15T03:07:01;96498.41;;;-0.73;100.00
52923;BME280;38796;42.702;23.306;2023-02-15T03:09:06;96494.75;;;-0.64;100.00
52923;BME280;38796;42.702;23.306;2023-02-15T03:11:11;96501.38;;;-0.54;100.00
52923;BME280;38796;42.702;23.306;2023-02-15T03:13:10;96501.25;;;-0.48;100.00
52923;BME280;38796;42.702;23.306;2023-02-15T03:15:11;96498.66;;;-0.48;100.00
52923;BME280;38796;42.702;23.306;2023-02-15T03:17:13;96503.63;;;-0.39;100.00
52923;BME280;38796;42.702;23.306;2023-02-15T03:19:15;96500.91;;;-0.34;100.00
52923;BME280;38796;42.702;23.306;2023-02-15T03:21:14;96505.13;;;-0.30;100.00
52923;BME280;38796;42.702;23.306;2023-02-15T03:23:19;96506.72;;;-0.25;100.00
52923;BME280;38796;42.702;23.306;2023-02-15T03:25:22;96493.72;;;-0.23;99.81
52923;BME280;38796;42.702;23.306;2023-02-15T03:27:25;96501.53;;;-0.25;99.71
52923;BME280;38796;42.702;23.306;2023-02-15T03:29:27;96498.88;;;-0.21;99.78
52923;BME280;38796;42.702;23.306;2023-02-15T03:31:28;96499.66;;;-0.18;99.88
52923;BME280;38796;42.702;23.306;2023-02-15T03:33:29;96498.75;;;-0.17;99.64
52923;BME280;38796;42.702;23.306;2023-02-15T03:35:35;96496.88;;;-0.12;99.90
52923;BME280;38796;42.702;23.306;2023-02-15T03:37:39;96506.31;;;-0.09;99.82
52923;BME280;38796;42.702;23.306;2023-02-15T03:39:43;96504.44;;;-0.04;99.43
52923;BME280;38796;42.702;23.306;2023-02-15T03:41:49;96498.97;;;0.07;99.73
52923;BME280;38796;42.702;23.306;2023-02-15T03:43:53;96500.22;;;0.24;98.87
52923;BME280;38796;42.702;23.306;2023-02-15T03:45:58;96497.31;;;0.37;97.76
52923;BME280;38796;42.702;23.306;2023-02-15T03:48:02;96494.50;;;0.44;96.93
52923;BME280;38796;42.702;23.306;2023-02-15T03:50:04;96490.09;;;0.46;96.87
52923;BME280;38796;42.702;23.306;2023-02-15T03:52:26;96492.53;;;0.53;96.07
52923;BME280;38796;42.702;23.306;2023-02-15T03:54:27;96493.16;;;0.61;95.72
52923;BME280;38796;42.702;23.306;2023-02-15T03:56:42;96494.88;;;0.62;95.69
52923;BME280;38796;42.702;23.306;2023-02-15T03:59:03;96496.03;;;0.52;95.77
52923;BME280;38796;42.702;23.306;2023-02-15T04:01:23;96487.28;;;0.56;96.11
52923;BME280;38796;42.702;23.306;2023-02-15T04:03:43;96498.66;;;0.50;96.11
52923;BME280;38796;42.702;23.306;2023-02-15T04:05:43;96497.09;;;0.44;96.12
52923;BME280;38796;42.702;23.306;2023-02-15T04:07:42;96497.09;;;0.44;96.66
52923;BME280;38796;42.702;23.306;2023-02-15T04:09:40;96497.13;;;0.43;96.40
52923;BME280;38796;42.702;23.306;2023-02-15T04:11:56;96506.72;;;0.39;96.40
52923;BME280;38796;42.702;23.306;2023-02-15T04:13:54;96507.25;;;0.52;96.42
52923;BME280;38796;42.702;23.306;2023-02-15T04:15:55;96514.16;;;0.52;96.27
52923;BME280;38796;42.702;23.306;2023-02-15T04:18:05;96512.38;;;0.54;96.24
52923;BME280;38796;42.702;23.306;2023-02-15T04:20:03;96514.13;;;0.53;96.28
52923;BME280;38796;42.702;23.306;2023-02-15T04:22:19;96517.59;;;0.52;96.17
52923;BME280;38796;42.702;23.306;2023-02-15T04:24:34;96517.66;;;0.51;96.39
52923;BME280;38796;42.702;23.306;2023-02-15T04:26:50;96523.63;;;0.53;96.33
52923;BME280;38796;42.702;23.306;2023-02-15T04:28:50;96531.25;;;0.59;96.30
52923;BME280;38796;42.702;23.306;2023-02-15T04:30:48;96539.03;;;0.59;95.93
52923;BME280;38796;42.702;23.306;2023-02-15T04:32:48;96541.75;;;0.54;96.26
52923;BME280;38796;42.702;23.306;2023-02-15T04:34:47;96530.25;;;0.63;96.30
52923;BME280;38796;42.702;23.306;2023-02-15T04:36:45;96542.88;;;0.75;95.78
52923;BME280;38796;42.702;23.306;2023-02-15T04:38:43;96542.94;;;0.72;94.89
52923;BME280;38796;42.702;23.306;2023-02-15T04:40:41;96538.34;;;0.83;95.07
52923;BME280;38796;42.702;23.306;2023-02-15T04:42:39;96538.22;;;0.86;94.66
52923;BME280;38796;42.702;23.306;2023-02-15T04:44:38;96537.97;;;0.95;94.11
52923;BME280;38796;42.702;23.306;2023-02-15T04:46:36;96535.84;;;0.79;94.48
52923;BME280;38796;42.702;23.306;2023-02-15T04:48:36;96536.13;;;0.69;94.71
52923;BME280;38796;42.702;23.306;2023-02-15T04:50:34;96542.31;;;0.64;95.17
52923;BME280;38796;42.702;23.306;2023-02-15T04:52:32;96544.13;;;0.62;95.37
52923;BME280;38796;42.702;23.306;2023-02-15T04:54:30;96551.75;;;0.66;95.59
52923;BME280;38796;42.702;23.306;2023-02-15T04:56:29;96539.66;;;0.67;95.76
52923;BME280;38796;42.702;23.306;2023-02-15T04:58:27;96544.75;;;0.70;95.77
52923;BME280;38796;42.702;23.306;2023-02-15T05:00:26;96545.53;;;0.72;95.77
52923;BME280;38796;42.702;23.306;2023-02-15T05:02:24;96543.81;;;0.73;95.91
52923;BME280;38796;42.702;23.306;2023-02-15T05:04:24;96554.72;;;0.84;95.42
52923;BME280;38796;42.702;23.306;2023-02-15T05:06:22;96547.97;;;0.78;95.29
52923;BME280;38796;42.702;23.306;2023-02-15T05:08:21;96545.91;;;0.89;94.78
52923;BME280;38796;42.702;23.306;2023-02-15T05:10:20;96562.50;;;1.13;94.22
52923;BME280;38796;42.702;23.306;2023-02-15T05:12:18;96560.84;;;1.11;93.50
52923;BME280;38796;42.702;23.306;2023-02-15T05:14:16;96556.63;;;1.08;93.93
52923;BME280;38796;42.702;23.306;2023-02-15T05:16:14;96566.25;;;1.03;93.81
52923;BME280;38796;42.702;23.306;2023-02-15T05:18:13;96559.53;;;0.98;93.44
52923;BME280;38796;42.702;23.306;2023-02-15T05:20:12;96563.97;;;0.92;93.73
52923;BME280;38796;42.702;23.306;2023-02-15T05:22:11;96564.88;;;0.91;94.06
52923;BME280;38796;42.702;23.306;2023-02-15T05:24:09;96569.25;;;0.89;94.13
52923;BME280;38796;42.702;23.306;2023-02-15T05:26:23;96574.72;;;0.80;94.49
52923;BME280;38796;42.702;23.306;2023-02-15T05:28:39;96570.97;;;0.90;94.84
52923;BME280;38796;42.702;23.306;2023-02-15T05:30:37;96574.00;;;1.05;94.23
52923;BME280;38796;42.702;23.306;2023-02-15T05:32:37;96578.53;;;0.98;93.74
52923;BME280;38796;42.702;23.306;2023-02-15T05:34:35;96574.28;;;0.95;94.16
52923;BME280;38796;42.702;23.306;2023-02-15T05:36:35;96577.63;;;0.99;94.02
52923;BME280;38796;42.702;23.306;2023-02-15T05:38:33;96580.28;;;0.98;93.88
52923;BME280;38796;42.702;23.306;2023-02-15T05:40:33;96588.53;;;1.10;93.73
52923;BME280;38796;42.702;23.306;2023-02-15T05:42:31;96588.59;;;1.09;93.10
52923;BME280;38796;42.702;23.306;2023-02-15T05:44:30;96582.31;;;1.16;93.21
52923;BME280;38796;42.702;23.306;2023-02-15T05:46:28;96587.06;;;1.31;92.27
52923;BME280;38796;42.702;23.306;2023-02-15T05:48:27;96582.44;;;1.41;91.70
52923;BME280;38796;42.702;23.306;2023-02-15T05:50:26;96583.13;;;1.46;91.46
52923;BME280;38796;42.702;23.306;2023-02-15T05:52:25;96584.88;;;1.46;90.76
52923;BME280;38796;42.702;23.306;2023-02-15T05:54:24;96585.72;;;1.46;91.25
52923;BME280;38796;42.702;23.306;2023-02-15T05:56:22;96589.91;;;1.52;90.79
52923;BME280;38796;42.702;23.306;2023-02-15T05:58:20;96590.03;;;1.47;90.49
52923;BME280;38796;42.702;23.306;2023-02-15T06:00:19;96587.63;;;1.41;90.62
52923;BME280;38796;42.702;23.306;2023-02-15T06:02:17;96589.56;;;1.34;90.80
52923;BME280;38796;42.702;23.306;2023-02-15T06:04:15;96587.06;;;1.31;91.65
52923;BME280;38796;42.702;23.306;2023-02-15T06:06:14;96595.63;;;1.33;91.03
52923;BME280;38796;42.702;23.306;2023-02-15T06:08:14;96597.56;;;1.27;91.38
52923;BME280;38796;42.702;23.306;2023-02-15T06:10:12;96594.16;;;1.25;91.57
52923;BME280;38796;42.702;23.306;2023-02-15T06:12:10;96599.22;;;1.29;91.92
52923;BME280;38796;42.702;23.306;2023-02-15T06:14:09;96590.63;;;1.27;91.39
52923;BME280;38796;42.702;23.306;2023-02-15T06:16:07;96589.66;;;1.31;91.58
52923;BME280;38796;42.702;23.306;2023-02-15T06:18:05;96590.22;;;1.41;91.46
52923;BME280;38796;42.702;23.306;2023-02-15T06:20:05;96593.75;;;1.38;91.11
52923;BME280;38796;42.702;23.306;2023-02-15T06:22:03;96591.84;;;1.43;91.16
52923;BME280;38796;42.702;23.306;2023-02-15T06:24:04;96597.88;;;1.46;90.52
52923;BME280;38796;42.702;23.306;2023-02-15T06:26:03;96595.19;;;1.49;90.81
52923;BME280;38796;42.702;23.306;2023-02-15T06:28:01;96600.31;;;1.50;90.04
52923;BME280;38796;42.702;23.306;2023-02-15T06:29:59;96604.41;;;1.57;90.50
52923;BME280;38796;42.702;23.306;2023-02-15T06:31:58;96598.19;;;1.63;89.91
52923;BME280;38796;42.702;23.306;2023-02-15T06:33:56;96596.22;;;1.71;90.15
52923;BME280;38796;42.702;23.306;2023-02-15T06:35:57;96591.75;;;1.75;89.24
52923;BME280;38796;42.702;23.306;2023-02-15T06:37:56;96596.13;;;1.74;89.18
52923;BME280;38796;42.702;23.306;2023-02-15T06:39:56;96594.22;;;1.79;88.58
52923;BME280;38796;42.702;23.306;2023-02-15T06:41:54;96601.84;;;1.84;88.96
52923;BME280;38796;42.702;23.306;2023-02-15T06:43:52;96596.47;;;1.90;88.33
52923;BME280;38796;42.702;23.306;2023-02-15T06:45:51;96596.47;;;1.90;87.54
52923;BME280;38796;42.702;23.306;2023-02-15T06:47:49;96600.81;;;1.89;87.87
52923;BME280;38796;42.702;23.306;2023-02-15T06:49:47;96593.84;;;1.91;87.79
52923;BME280;38796;42.702;23.306;2023-02-15T06:51:45;96597.06;;;1.98;87.60
52923;BME280;38796;42.702;23.306;2023-02-15T06:53:44;96599.53;;;2.03;87.06
52923;BME280;38796;42.702;23.306;2023-02-15T06:55:43;96593.22;;;2.10;87.32
52923;BME280;38796;42.702;23.306;2023-02-15T06:57:42;96598.34;;;2.13;86.53
52923;BME280;38796;42.702;23.306;2023-02-15T06:59:40;96610.00;;;2.26;85.79
52923;BME280;38796;42.702;23.306;2023-02-15T07:01:38;96599.59;;;2.26;85.19
52923;BME280;38796;42.702;23.306;2023-02-15T07:03:37;96605.38;;;2.34;85.52
52923;BME280;38796;42.702;23.306;2023-02-15T07:05:35;96601.66;;;2.41;84.63
52923;BME280;38796;42.702;23.306;2023-02-15T07:07:33;96608.69;;;2.39;84.56
52923;BME280;38796;42.702;23.306;2023-02-15T07:09:32;96604.44;;;2.37;84.48
52923;BME280;38796;42.702;23.306;2023-02-15T07:11:32;96599.44;;;2.56;84.55
52923;BME280;38796;42.702;23.306;2023-02-15T07:13:48;96598.28;;;2.89;82.94
52923;BME280;38796;42.702;23.306;2023-02-15T07:15:47;96604.50;;;3.09;81.55
52923;BME280;38796;42.702;23.306;2023-02-15T07:17:47;96607.44;;;3.23;81.13
52923;BME280;38796;42.702;23.306;2023-02-15T07:19:45;96608.97;;;3.29;80.23
52923;BME280;38796;42.702;23.306;2023-02-15T07:21:43;96611.09;;;3.41;80.02
52923;BME280;38796;42.702;23.306;2023-02-15T07:23:42;96608.31;;;3.46;79.75
52923;BME280;38796;42.702;23.306;2023-02-15T07:25:40;96612.47;;;3.51;79.43
52923;BME280;38796;42.702;23.306;2023-02-15T07:27:40;96612.13;;;3.37;79.31
52923;BME280;38796;42.702;23.306;2023-02-15T07:29:39;96614.97;;;3.31;79.69
52923;BME280;38796;42.702;23.306;2023-02-15T07:31:37;96612.97;;;3.37;79.59
52923;BME280;38796;42.702;23.306;2023-02-15T07:33:35;96615.34;;;3.20;79.40
52923;BME280;38796;42.702;23.306;2023-02-15T07:35:34;96600.97;;;3.10;79.96
52923;BME280;38796;42.702;23.306;2023-02-15T07:37:32;96601.03;;;3.08;79.95
52923;BME280;38796;42.702;23.306;2023-02-15T07:39:30;96599.06;;;3.15;80.09
52923;BME280;38796;42.702;23.306;2023-02-15T07:41:29;96601.09;;;3.30;79.34
52923;BME280;38796;42.702;23.306;2023-02-15T07:43:29;96595.16;;;3.27;79.27
52923;BME280;38796;42.702;23.306;2023-02-15T07:45:27;96600.19;;;3.31;79.33
52923;BME280;38796;42.702;23.306;2023-02-15T07:47:26;96594.00;;;3.34;79.12
52923;BME280;38796;42.702;23.306;2023-02-15T07:49:24;96599.19;;;3.35;78.82
52923;BME280;38796;42.702;23.306;2023-02-15T07:51:22;96590.16;;;3.44;78.78
52923;BME280;38796;42.702;23.306;2023-02-15T07:53:21;96599.28;;;3.32;79.26
52923;BME280;38796;42.702;23.306;2023-02-15T07:55:19;96594.63;;;3.41;78.77
52923;BME280;38796;42.702;23.306;2023-02-15T07:57:17;96591.31;;;3.37;78.80
52923;BME280;38796;42.702;23.306;2023-02-15T07:59:17;96589.03;;;3.51;78.50
52923;BME280;38796;42.702;23.306;2023-02-15T08:01:15;96582.28;;;3.46;78.74
52923;BME280;38796;42.702;23.306;2023-02-15T08:03:14;96590.41;;;3.60;78.51
52923;BME280;38796;42.702;23.306;2023-02-15T08:05:12;96583.00;;;3.71;78.04
52923;BME280;38796;42.702;23.306;2023-02-15T08:07:11;96586.31;;;3.76;77.93
52923;BME280;38796;42.702;23.306;2023-02-15T08:09:13;96586.50;;;3.72;77.67
52923;BME280;38796;42.702;23.306;2023-02-15T08:11:17;96597.88;;;3.69;77.47
52923;BME280;38796;42.702;23.306;2023-02-15T08:13:30;96592.72;;;3.68;78.27
52923;BME280;38796;42.702;23.306;2023-02-15T08:15:30;96594.34;;;3.70;77.19
52923;BME280;38796;42.702;23.306;2023-02-15T08:17:28;96600.53;;;3.68;77.64
52923;BME280;38796;42.702;23.306;2023-02-15T08:19:28;96591.00;;;3.45;78.01
52923;BME280;38796;42.702;23.306;2023-02-15T08:21:27;96601.75;;;3.59;77.69
52923;BME280;38796;42.702;23.306;2023-02-15T08:23:26;96597.88;;;3.69;77.12
52923;BME280;38796;42.702;23.306;2023-02-15T08:25:24;96603.69;;;3.76;76.69
52923;BME280;38796;42.702;23.306;2023-02-15T08:27:22;96600.78;;;3.83;76.44
52923;BME280;38796;42.702;23.306;2023-02-15T08:29:26;96601.06;;;4.20;74.74
52923;BME280;38796;42.702;23.306;2023-02-15T08:31:26;96606.91;;;4.25;74.14
52923;BME280;38796;42.702;23.306;2023-02-15T08:33:25;96592.66;;;4.33;73.66
52923;BME280;38796;42.702;23.306;2023-02-15T08:35:23;96601.66;;;4.26;74.07
52923;BME280;38796;42.702;23.306;2023-02-15T08:37:21;96596.75;;;4.39;73.53
52923;BME280;38796;42.702;23.306;2023-02-15T08:39:19;96594.81;;;4.44;73.15
52923;BME280;38796;42.702;23.306;2023-02-15T08:41:20;96592.59;;;4.55;73.33
52923;BME280;38796;42.702;23.306;2023-02-15T08:43:18;96595.72;;;4.43;72.88
52923;BME280;38796;42.702;23.306;2023-02-15T08:45:17;96601.47;;;4.31;72.84
52923;BME280;38796;42.702;23.306;2023-02-15T08:47:16;96594.91;;;4.00;73.29
52923;BME280;38796;42.702;23.306;2023-02-15T08:49:17;96595.16;;;4.15;73.29
52923;BME280;38796;42.702;23.306;2023-02-15T08:51:18;96599.53;;;4.14;72.99
52923;BME280;38796;42.702;23.306;2023-02-15T08:53:16;96595.97;;;4.17;72.99
52923;BME280;38796;42.702;23.306;2023-02-15T08:55:18;96607.34;;;4.14;72.66
52923;BME280;38796;42.702;23.306;2023-02-15T08:57:17;96604.91;;;4.31;72.65
52923;BME280;38796;42.702;23.306;2023-02-15T08:59:17;96600.97;;;4.21;71.46
52923;BME280;38796;42.702;23.306;2023-02-15T09:01:18;96603.16;;;4.32;71.61
52923;BME280;38796;42.702;23.306;2023-02-15T09:03:18;96605.63;;;4.35;71.44
52923;BME280;38796;42.702;23.306;2023-02-15T09:05:16;96609.34;;;4.29;71.26
52923;BME280;38796;42.702;23.306;2023-02-15T09:07:14;96602.78;;;4.41;71.09
52923;BME280;38796;42.702;23.306;2023-02-15T09:09:14;96615.75;;;4.63;70.67
52923;BME280;38796;42.702;23.306;2023-02-15T09:11:14;96597.56;;;4.62;70.09
52923;BME280;38796;42.702;23.306;2023-02-15T09:13:19;96602.75;;;4.82;69.84
52923;BME280;38796;42.702;23.306;2023-02-15T09:15:18;96598.47;;;5.20;68.20
52923;BME280;38796;42.702;23.306;2023-02-15T09:17:16;96594.72;;;5.26;67.87
52923;BME280;38796;42.702;23.306;2023-02-15T09:19:20;96590.41;;;5.44;67.21
52923;BME280;38796;42.702;23.306;2023-02-15T09:21:20;96595.97;;;5.55;66.48
52923;BME280;38796;42.702;23.306;2023-02-15T09:23:19;96595.63;;;5.82;65.94
52923;BME280;38796;42.702;23.306;2023-02-15T09:25:23;96592.47;;;6.11;65.16
52923;BME280;38796;42.702;23.306;2023-02-15T09:27:21;96596.16;;;6.07;64.41
52923;BME280;38796;42.702;23.306;2023-02-15T09:29:19;96592.56;;;6.10;64.89
52923;BME280;38796;42.702;23.306;2023-02-15T09:31:21;96597.84;;;6.08;65.28
52923;BME280;38796;42.702;23.306;2023-02-15T09:33:20;96596.06;;;6.09;65.21
52923;BME280;38796;42.702;23.306;2023-02-15T09:35:20;96597.59;;;5.76;64.92
52923;BME280;38796;42.702;23.306;2023-02-15T09:37:18;96597.94;;;6.07;64.71
52923;BME280;38796;42.702;23.306;2023-02-15T09:39:18;96588.19;;;6.10;64.76
52923;BME280;38796;42.702;23.306;2023-02-15T09:41:40;96598.59;;;5.93;65.27
52923;BME280;38796;42.702;23.306;2023-02-15T09:43:48;96592.53;;;5.73;66.03
52923;BME280;38796;42.702;23.306;2023-02-15T09:46:08;96605.59;;;5.73;66.28
52923;BME280;38796;42.702;23.306;2023-02-15T09:48:39;96592.84;;;5.48;66.58
52923;BME280;38796;42.702;23.306;2023-02-15T09:50:44;96584.47;;;5.78;66.04
52923;BME280;38796;42.702;23.306;2023-02-15T09:53:03;96593.59;;;6.06;65.03
52923;BME280;38796;42.702;23.306;2023-02-15T09:55:21;96591.19;;;6.37;63.86
52923;BME280;38796;42.702;23.306;2023-02-15T09:57:26;96584.81;;;6.60;63.14
52923;BME280;38796;42.702;23.306;2023-02-15T09:59:34;96591.56;;;6.47;63.36
52923;BME280;38796;42.702;23.306;2023-02-15T10:01:44;96588.28;;;6.43;63.54
52923;BME280;38796;42.702;23.306;2023-02-15T10:03:56;96579.25;;;6.49;63.60
52923;BME280;38796;42.702;23.306;2023-02-15T10:08:49;96578.34;;;7.01;61.43
52923;BME280;38796;42.702;23.306;2023-02-15T10:10:58;96585.53;;;6.97;61.18
52923;BME280;38796;42.702;23.306;2023-02-15T10:13:29;96591.00;;;7.26;61.14
52923;BME280;38796;42.702;23.306;2023-02-15T10:15:39;96575.41;;;7.07;60.69
52923;BME280;38796;42.702;23.306;2023-02-15T10:17:58;96573.13;;;7.01;61.31
52923;BME280;38796;42.702;23.306;2023-02-15T10:20:12;96579.00;;;7.21;60.41
52923;BME280;38796;42.702;23.306;2023-02-15T10:22:25;96568.94;;;7.45;59.25
52923;BME280;38796;42.702;23.306;2023-02-15T10:24:47;96559.31;;;7.14;59.74
52923;BME280;38796;42.702;23.306;2023-02-15T10:26:55;96558.88;;;8.01;58.21
52923;BME280;38796;42.702;23.306;2023-02-15T10:28:57;96547.06;;;8.24;56.99
52923;BME280;38796;42.702;23.306;2023-02-15T10:31:07;96551.69;;;7.89;57.54
52923;BME280;38796;42.702;23.306;2023-02-15T10:33:12;96556.78;;;7.60;58.37
52923;BME280;38796;42.702;23.306;2023-02-15T10:35:20;96541.38;;;7.86;58.15
52923;BME280;38796;42.702;23.306;2023-02-15T10:37:38;96551.72;;;7.41;58.36
52923;BME280;38796;42.702;23.306;2023-02-15T10:39:49;96545.47;;;7.44;59.34
52923;BME280;38796;42.702;23.306;2023-02-15T10:41:53;96540.72;;;7.66;58.92
52923;BME280;38796;42.702;23.306;2023-02-15T10:44:14;96553.47;;;7.88;58.05
52923;BME280;38796;42.702;23.306;2023-02-15T10:46:33;96542.97;;;8.04;57.68
52923;BME280;38796;42.702;23.306;2023-02-15T10:48:53;96532.94;;;8.11;57.02
52923;BME280;38796;42.702;23.306;2023-02-15T10:50:56;96529.47;;;8.10;57.33
52923;BME280;38796;42.702;23.306;2023-02-15T10:53:09;96534.25;;;8.34;56.75
52923;BME280;38796;42.702;23.306;2023-02-15T10:55:17;96529.22;;;9.74;53.68